sim
Sign-in with your pilot id or email,
or register
Callsign
Passwort

Schedule Details

Flight Number: RYR1585 (2)
Departure: Fuerteventura Airport (GCFV) at 12:05
Arrival: Leeds Bradford Airport (EGNM) at 16:30
Route: Ryanair Passenger Schedule. Enter filed route here before submitting Pirep.

Weather Information
Getting current METAR information for GCFV 222230Z 36018KT CAVOK 21/17 Q1018
Getting current METAR information for EGNM 222250Z 24006KT 210V280 9999 FEW020 18/14 Q1020

Schedule Frequency

Route Map